sensor_id;sensor_type;location;lat;lon;timestamp;pressure;altitude;pressure_sealevel;temperature;humidity
55456;BME280;63021;52.836;6.376;2024-03-23T00:54:22;101058.94;;;6.91;nan
55456;BME280;63021;52.836;6.376;2024-03-23T00:56:47;101049.56;;;6.87;nan
55456;BME280;63021;52.836;6.376;2024-03-23T00:59:13;101026.09;;;6.83;nan
55456;BME280;63021;52.836;6.376;2024-03-23T01:01:39;101041.97;;;6.83;nan
55456;BME280;63021;52.836;6.376;2024-03-23T01:04:04;101025.34;;;6.81;nan
55456;BME280;63021;52.836;6.376;2024-03-23T01:06:29;101031.00;;;6.76;nan
55456;BME280;63021;52.836;6.376;2024-03-23T01:08:55;101056.88;;;6.72;nan
55456;BME280;63021;52.836;6.376;2024-03-23T01:11:20;101034.84;;;6.72;nan
55456;BME280;63021;52.836;6.376;2024-03-23T01:13:46;101027.16;;;6.69;nan
55456;BME280;63021;52.836;6.376;2024-03-23T01:16:17;101008.13;;;6.52;nan
55456;BME280;63021;52.836;6.376;2024-03-23T01:18:42;101028.56;;;6.62;nan
55456;BME280;63021;52.836;6.376;2024-03-23T01:21:08;100989.81;;;6.38;nan
55456;BME280;63021;52.836;6.376;2024-03-23T01:23:33;101021.22;;;6.54;nan
55456;BME280;63021;52.836;6.376;2024-03-23T01:25:59;101016.84;;;6.41;nan
55456;BME280;63021;52.836;6.376;2024-03-23T01:28:24;101018.19;;;6.47;nan
55456;BME280;63021;52.836;6.376;2024-03-23T01:30:52;100991.84;;;6.34;nan
55456;BME280;63021;52.836;6.376;2024-03-23T01:33:17;101008.94;;;6.41;nan
55456;BME280;63021;52.836;6.376;2024-03-23T01:35:43;101001.22;;;6.38;nan
55456;BME280;63021;52.836;6.376;2024-03-23T01:38:08;101012.41;;;6.31;nan
55456;BME280;63021;52.836;6.376;2024-03-23T01:40:33;100989.44;;;6.31;nan
55456;BME280;63021;52.836;6.376;2024-03-23T01:43:03;100983.88;;;6.23;nan
55456;BME280;63021;52.836;6.376;2024-03-23T01:45:30;100990.63;;;6.27;nan
55456;BME280;63021;52.836;6.376;2024-03-23T01:47:56;100978.81;;;6.20;nan
55456;BME280;63021;52.836;6.376;2024-03-23T01:50:22;100979.53;;;6.22;nan
55456;BME280;63021;52.836;6.376;2024-03-23T01:52:49;100982.53;;;6.17;nan
55456;BME280;63021;52.836;6.376;2024-03-23T01:55:14;100973.72;;;6.05;nan
55456;BME280;63021;52.836;6.376;2024-03-23T01:57:40;100962.19;;;6.06;nan
55456;BME280;63021;52.836;6.376;2024-03-23T02:00:06;100989.56;;;6.05;nan
55456;BME280;63021;52.836;6.376;2024-03-23T02:02:31;100964.09;;;6.04;nan
55456;BME280;63021;52.836;6.376;2024-03-23T02:04:57;100961.69;;;6.01;nan
55456;BME280;63021;52.836;6.376;2024-03-23T02:07:22;100953.03;;;5.99;nan
55456;BME280;63021;52.836;6.376;2024-03-23T02:09:49;100951.56;;;5.95;nan
55456;BME280;63021;52.836;6.376;2024-03-23T02:12:15;100966.78;;;5.92;nan
55456;BME280;63021;52.836;6.376;2024-03-23T02:14:41;100950.22;;;5.89;nan
55456;BME280;63021;52.836;6.376;2024-03-23T02:17:06;100961.00;;;5.86;nan
55456;BME280;63021;52.836;6.376;2024-03-23T02:19:32;100943.81;;;5.81;nan
55456;BME280;63021;52.836;6.376;2024-03-23T02:21:57;100949.09;;;5.81;nan
55456;BME280;63021;52.836;6.376;2024-03-23T02:24:22;100941.41;;;5.78;nan
55456;BME280;63021;52.836;6.376;2024-03-23T02:26:48;100932.84;;;5.74;nan
55456;BME280;63021;52.836;6.376;2024-03-23T02:29:14;100943.00;;;5.67;nan
55456;BME280;63021;52.836;6.376;2024-03-23T02:31:39;100960.56;;;5.68;nan
55456;BME280;63021;52.836;6.376;2024-03-23T02:34:05;100933.41;;;5.66;nan
55456;BME280;63021;52.836;6.376;2024-03-23T02:36:32;100913.19;;;5.54;nan
55456;BME280;63021;52.836;6.376;2024-03-23T02:38:58;100904.44;;;5.53;nan
55456;BME280;63021;52.836;6.376;2024-03-23T02:41:23;100921.63;;;5.59;nan
55456;BME280;63021;52.836;6.376;2024-03-23T02:43:49;100903.78;;;5.50;nan
55456;BME280;63021;52.836;6.376;2024-03-23T02:46:15;100897.16;;;5.44;nan
55456;BME280;63021;52.836;6.376;2024-03-23T02:48:41;100901.72;;;5.42;nan
55456;BME280;63021;52.836;6.376;2024-03-23T02:51:06;100900.91;;;5.42;nan
55456;BME280;63021;52.836;6.376;2024-03-23T02:53:31;100940.53;;;5.53;nan
55456;BME280;63021;52.836;6.376;2024-03-23T02:56:00;100917.00;;;5.50;nan
55456;BME280;63021;52.836;6.376;2024-03-23T02:58:25;100910.81;;;5.38;nan
55456;BME280;63021;52.836;6.376;2024-03-23T03:00:51;100912.91;;;5.46;nan
55456;BME280;63021;52.836;6.376;2024-03-23T03:03:16;100909.75;;;5.41;nan
55456;BME280;63021;52.836;6.376;2024-03-23T03:05:42;100923.78;;;5.41;nan
55456;BME280;63021;52.836;6.376;2024-03-23T03:08:07;100927.59;;;5.37;nan
55456;BME280;63021;52.836;6.376;2024-03-23T03:10:32;100917.91;;;5.37;nan
55456;BME280;63021;52.836;6.376;2024-03-23T03:13:00;100902.50;;;5.31;nan
55456;BME280;63021;52.836;6.376;2024-03-23T03:15:26;100870.69;;;5.22;nan
55456;BME280;63021;52.836;6.376;2024-03-23T03:17:51;100887.00;;;5.27;nan
55456;BME280;63021;52.836;6.376;2024-03-23T03:20:17;100866.56;;;5.17;nan
55456;BME280;63021;52.836;6.376;2024-03-23T03:22:43;100863.41;;;5.12;nan
55456;BME280;63021;52.836;6.376;2024-03-23T03:25:09;100883.66;;;5.25;nan
55456;BME280;63021;52.836;6.376;2024-03-23T03:27:35;100900.31;;;5.25;nan
55456;BME280;63021;52.836;6.376;2024-03-23T03:30:00;100893.13;;;5.27;nan
55456;BME280;63021;52.836;6.376;2024-03-23T03:36:10;100899.59;;;5.23;nan
55456;BME280;63021;52.836;6.376;2024-03-23T03:38:36;100892.72;;;5.20;nan
55456;BME280;63021;52.836;6.376;2024-03-23T03:41:02;100892.84;;;5.19;nan
55456;BME280;63021;52.836;6.376;2024-03-23T03:43:28;100865.56;;;5.07;nan
55456;BME280;63021;52.836;6.376;2024-03-23T03:45:56;100875.25;;;5.07;nan
55456;BME280;63021;52.836;6.376;2024-03-23T03:48:22;100871.88;;;5.05;nan
55456;BME280;63021;52.836;6.376;2024-03-23T03:50:47;100882.09;;;5.09;nan
55456;BME280;63021;52.836;6.376;2024-03-23T03:53:14;100875.25;;;5.07;nan
55456;BME280;63021;52.836;6.376;2024-03-23T03:55:39;100878.94;;;5.04;nan
55456;BME280;63021;52.836;6.376;2024-03-23T03:58:08;100871.06;;;4.91;nan
55456;BME280;63021;52.836;6.376;2024-03-23T04:00:34;100862.19;;;4.92;nan
55456;BME280;63021;52.836;6.376;2024-03-23T04:03:00;100839.38;;;4.80;nan
55456;BME280;63021;52.836;6.376;2024-03-23T04:05:26;100883.09;;;4.95;nan
55456;BME280;63021;52.836;6.376;2024-03-23T04:07:51;100829.13;;;4.75;nan
55456;BME280;63021;52.836;6.376;2024-03-23T04:10:17;100842.19;;;4.77;nan
55456;BME280;63021;52.836;6.376;2024-03-23T04:12:43;100864.34;;;4.87;nan
55456;BME280;63021;52.836;6.376;2024-03-23T04:15:09;100872.44;;;4.84;nan
55456;BME280;63021;52.836;6.376;2024-03-23T04:17:35;100871.00;;;4.80;nan
55456;BME280;63021;52.836;6.376;2024-03-23T04:20:02;100849.06;;;4.66;nan
55456;BME280;63021;52.836;6.376;2024-03-23T04:22:29;100880.31;;;4.73;nan
55456;BME280;63021;52.836;6.376;2024-03-23T04:24:55;100859.41;;;4.69;nan
55456;BME280;63021;52.836;6.376;2024-03-23T04:27:21;100858.56;;;4.69;nan
55456;BME280;63021;52.836;6.376;2024-03-23T04:29:50;100860.56;;;4.65;nan
55456;BME280;63021;52.836;6.376;2024-03-23T04:32:16;100876.59;;;4.62;nan
55456;BME280;63021;52.836;6.376;2024-03-23T04:34:42;100847.09;;;4.57;nan
55456;BME280;63021;52.836;6.376;2024-03-23T04:37:08;100836.97;;;4.51;nan
55456;BME280;63021;52.836;6.376;2024-03-23T04:39:34;100827.31;;;4.39;nan
55456;BME280;63021;52.836;6.376;2024-03-23T04:42:00;100812.75;;;4.33;nan
55456;BME280;63021;52.836;6.376;2024-03-23T04:44:26;100810.22;;;4.31;nan
55456;BME280;63021;52.836;6.376;2024-03-23T04:46:51;100842.69;;;4.45;nan
55456;BME280;63021;52.836;6.376;2024-03-23T04:49:17;100847.63;;;4.49;nan
55456;BME280;63021;52.836;6.376;2024-03-23T04:51:42;100840.69;;;4.48;nan
55456;BME280;63021;52.836;6.376;2024-03-23T04:54:12;100853.66;;;4.39;nan
55456;BME280;63021;52.836;6.376;2024-03-23T04:56:37;100833.19;;;4.42;nan
55456;BME280;63021;52.836;6.376;2024-03-23T04:59:02;100832.13;;;4.45;nan
55456;BME280;63021;52.836;6.376;2024-03-23T05:01:32;100797.50;;;4.25;nan
55456;BME280;63021;52.836;6.376;2024-03-23T05:03:58;100825.16;;;4.44;nan
55456;BME280;63021;52.836;6.376;2024-03-23T05:06:24;100795.69;;;4.26;nan
55456;BME280;63021;52.836;6.376;2024-03-23T05:08:51;100819.28;;;4.40;nan
55456;BME280;63021;52.836;6.376;2024-03-23T05:11:16;100815.50;;;4.31;nan
55456;BME280;63021;52.836;6.376;2024-03-23T05:13:42;100819.91;;;4.44;nan
55456;BME280;63021;52.836;6.376;2024-03-23T05:16:10;100822.53;;;4.44;nan
55456;BME280;63021;52.836;6.376;2024-03-23T05:18:36;100812.53;;;4.36;nan
55456;BME280;63021;52.836;6.376;2024-03-23T05:21:01;100794.00;;;4.25;nan
55456;BME280;63021;52.836;6.376;2024-03-23T05:23:28;100826.88;;;4.45;nan
55456;BME280;63021;52.836;6.376;2024-03-23T05:25:54;100810.97;;;4.33;nan
55456;BME280;63021;52.836;6.376;2024-03-23T05:28:23;100823.28;;;4.46;nan
55456;BME280;63021;52.836;6.376;2024-03-23T05:30:54;100815.06;;;4.38;nan
55456;BME280;63021;52.836;6.376;2024-03-23T05:33:22;100818.22;;;4.43;nan
55456;BME280;63021;52.836;6.376;2024-03-23T05:36:00;100818.84;;;4.46;nan
55456;BME280;63021;52.836;6.376;2024-03-23T05:38:28;100823.28;;;4.46;nan
55456;BME280;63021;52.836;6.376;2024-03-23T05:40:55;100796.00;;;4.34;nan
55456;BME280;63021;52.836;6.376;2024-03-23T05:43:21;100838.06;;;4.48;nan
55456;BME280;63021;52.836;6.376;2024-03-23T05:45:53;100821.06;;;4.53;nan
55456;BME280;63021;52.836;6.376;2024-03-23T05:48:18;100804.94;;;4.44;nan
55456;BME280;63021;52.836;6.376;2024-03-23T05:50:44;100818.00;;;4.46;nan
55456;BME280;63021;52.836;6.376;2024-03-23T05:53:09;100822.41;;;4.58;nan
55456;BME280;63021;52.836;6.376;2024-03-23T05:55:35;100819.47;;;4.63;nan
55456;BME280;63021;52.836;6.376;2024-03-23T05:58:00;100819.25;;;4.66;nan
55456;BME280;63021;52.836;6.376;2024-03-23T06:00:25;100823.22;;;4.72;nan
55456;BME280;63021;52.836;6.376;2024-03-23T06:02:51;100793.06;;;-146.93;nan
55456;BME280;63021;52.836;6.376;2024-03-23T06:05:17;100817.16;;;4.82;nan
55456;BME280;63021;52.836;6.376;2024-03-23T06:07:42;100824.78;;;4.87;nan
55456;BME280;63021;52.836;6.376;2024-03-23T06:10:08;100837.97;;;4.87;nan
55456;BME280;63021;52.836;6.376;2024-03-23T06:12:33;100818.34;;;4.78;nan
55456;BME280;63021;52.836;6.376;2024-03-23T06:14:59;100837.28;;;4.96;nan
55456;BME280;63021;52.836;6.376;2024-03-23T06:17:25;100826.31;;;4.90;nan
55456;BME280;63021;52.836;6.376;2024-03-23T06:19:50;100845.28;;;5.08;nan
55456;BME280;63021;52.836;6.376;2024-03-23T06:22:18;100834.72;;;5.08;nan
55456;BME280;63021;52.836;6.376;2024-03-23T06:24:44;100849.75;;;5.18;nan
55456;BME280;63021;52.836;6.376;2024-03-23T06:27:09;100852.03;;;5.12;nan
55456;BME280;63021;52.836;6.376;2024-03-23T06:29:35;100840.06;;;5.19;nan
55456;BME280;63021;52.836;6.376;2024-03-23T06:32:01;100833.81;;;5.20;nan
55456;BME280;63021;52.836;6.376;2024-03-23T06:34:27;100832.50;;;5.26;nan
55456;BME280;63021;52.836;6.376;2024-03-23T06:36:52;100810.63;;;5.12;nan
55456;BME280;63021;52.836;6.376;2024-03-23T06:39:18;100823.41;;;5.30;nan
55456;BME280;63021;52.836;6.376;2024-03-23T06:41:51;100822.34;;;5.32;nan
55456;BME280;63021;52.836;6.376;2024-03-23T06:44:17;100823.94;;;5.35;nan
55456;BME280;63021;52.836;6.376;2024-03-23T06:46:42;100829.34;;;5.33;nan
55456;BME280;63021;52.836;6.376;2024-03-23T06:49:11;100825.34;;;5.28;nan
55456;BME280;63021;52.836;6.376;2024-03-23T06:51:36;100836.91;;;5.38;nan
55456;BME280;63021;52.836;6.376;2024-03-23T06:54:03;100840.19;;;5.42;nan
55456;BME280;63021;52.836;6.376;2024-03-23T06:56:29;100829.63;;;5.42;nan
55456;BME280;63021;52.836;6.376;2024-03-23T06:58:55;100823.63;;;5.51;nan
55456;BME280;63021;52.836;6.376;2024-03-23T07:01:21;100811.03;;;5.54;nan
55456;BME280;63021;52.836;6.376;2024-03-23T07:03:46;100803.22;;;5.53;nan
55456;BME280;63021;52.836;6.376;2024-03-23T07:06:12;100809.97;;;5.57;nan
55456;BME280;63021;52.836;6.376;2024-03-23T07:08:37;100815.16;;;5.70;nan
55456;BME280;63021;52.836;6.376;2024-03-23T07:11:03;100801.47;;;5.65;nan
55456;BME280;63021;52.836;6.376;2024-03-23T07:13:28;100802.69;;;5.72;nan
55456;BME280;63021;52.836;6.376;2024-03-23T07:15:54;100811.38;;;5.85;nan
55456;BME280;63021;52.836;6.376;2024-03-23T07:18:23;100804.38;;;5.84;nan
55456;BME280;63021;52.836;6.376;2024-03-23T07:20:55;100826.78;;;6.03;nan
55456;BME280;63021;52.836;6.376;2024-03-23T07:23:22;100824.53;;;6.21;nan
55456;BME280;63021;52.836;6.376;2024-03-23T07:26:05;100816.97;;;6.39;nan
55456;BME280;63021;52.836;6.376;2024-03-23T07:28:31;100821.88;;;6.55;nan
55456;BME280;63021;52.836;6.376;2024-03-23T07:31:07;100825.97;;;6.70;nan
55456;BME280;63021;52.836;6.376;2024-03-23T07:33:41;100815.50;;;6.80;nan
55456;BME280;63021;52.836;6.376;2024-03-23T07:36:07;100819.56;;;6.84;nan
55456;BME280;63021;52.836;6.376;2024-03-23T07:38:32;100815.72;;;6.88;nan
55456;BME280;63021;52.836;6.376;2024-03-23T07:43:32;100836.53;;;6.82;nan
55456;BME280;63021;52.836;6.376;2024-03-23T07:46:01;100821.41;;;6.72;nan
55456;BME280;63021;52.836;6.376;2024-03-23T07:48:27;100838.59;;;6.67;nan
55456;BME280;63021;52.836;6.376;2024-03-23T07:51:07;100833.91;;;6.59;nan
55456;BME280;63021;52.836;6.376;2024-03-23T07:53:33;100829.09;;;6.53;nan
55456;BME280;63021;52.836;6.376;2024-03-23T07:56:05;100823.56;;;6.45;nan
55456;BME280;63021;52.836;6.376;2024-03-23T07:58:31;100827.16;;;6.44;nan
55456;BME280;63021;52.836;6.376;2024-03-23T08:01:12;100828.28;;;6.41;nan
55456;BME280;63021;52.836;6.376;2024-03-23T08:03:41;100832.59;;;6.42;nan
55456;BME280;63021;52.836;6.376;2024-03-23T08:06:13;100828.97;;;6.43;nan
55456;BME280;63021;52.836;6.376;2024-03-23T08:08:40;100820.34;;;6.41;nan
55456;BME280;63021;52.836;6.376;2024-03-23T08:11:06;100811.78;;;6.49;nan
55456;BME280;63021;52.836;6.376;2024-03-23T08:13:32;100814.19;;;6.52;nan
55456;BME280;63021;52.836;6.376;2024-03-23T08:15:59;100812.03;;;6.68;nan
55456;BME280;63021;52.836;6.376;2024-03-23T08:18:26;100800.56;;;6.79;nan
55456;BME280;63021;52.836;6.376;2024-03-23T08:21:02;100801.03;;;6.96;nan
55456;BME280;63021;52.836;6.376;2024-03-23T08:23:36;100787.63;;;7.08;nan
55456;BME280;63021;52.836;6.376;2024-03-23T08:26:12;100783.84;;;7.22;nan
55456;BME280;63021;52.836;6.376;2024-03-23T08:28:38;100790.38;;;7.39;nan
55456;BME280;63021;52.836;6.376;2024-03-23T08:31:07;100792.16;;;7.50;nan
55456;BME280;63021;52.836;6.376;2024-03-23T08:33:36;100792.47;;;7.57;nan
55456;BME280;63021;52.836;6.376;2024-03-23T08:36:06;100793.16;;;7.80;nan
55456;BME280;63021;52.836;6.376;2024-03-23T08:38:33;100783.78;;;7.97;nan
55456;BME280;63021;52.836;6.376;2024-03-23T08:41:02;100793.22;;;8.11;nan
55456;BME280;63021;52.836;6.376;2024-03-23T08:43:29;100755.53;;;8.17;nan
55456;BME280;63021;52.836;6.376;2024-03-23T08:46:04;100761.81;;;8.47;nan
55456;BME280;63021;52.836;6.376;2024-03-23T08:48:34;100757.28;;;8.69;nan
55456;BME280;63021;52.836;6.376;2024-03-23T08:53:27;100716.50;;;8.99;nan
55456;BME280;63021;52.836;6.376;2024-03-23T08:55:54;100743.47;;;9.33;nan
55456;BME280;63021;52.836;6.376;2024-03-23T08:58:24;100743.72;;;9.50;nan
55456;BME280;63021;52.836;6.376;2024-03-23T09:00:51;100728.75;;;9.49;nan
55456;BME280;63021;52.836;6.376;2024-03-23T09:03:16;100735.34;;;9.45;nan
55456;BME280;63021;52.836;6.376;2024-03-23T09:05:42;100747.81;;;9.34;nan
55456;BME280;63021;52.836;6.376;2024-03-23T09:08:07;100759.53;;;9.32;nan
55456;BME280;63021;52.836;6.376;2024-03-23T09:10:43;100766.13;;;9.18;nan
55456;BME280;63021;52.836;6.376;2024-03-23T09:13:08;100768.22;;;9.05;nan
55456;BME280;63021;52.836;6.376;2024-03-23T09:15:35;100767.50;;;8.93;nan
55456;BME280;63021;52.836;6.376;2024-03-23T09:18:01;100763.56;;;8.77;nan
55456;BME280;63021;52.836;6.376;2024-03-23T09:20:26;100767.34;;;8.65;nan
55456;BME280;63021;52.836;6.376;2024-03-23T09:22:52;100767.84;;;8.59;nan
55456;BME280;63021;52.836;6.376;2024-03-23T09:25:17;100744.00;;;8.28;nan
55456;BME280;63021;52.836;6.376;2024-03-23T09:27:46;100789.91;;;8.49;nan
55456;BME280;63021;52.836;6.376;2024-03-23T09:30:14;100739.28;;;8.41;nan
55456;BME280;63021;52.836;6.376;2024-03-23T09:32:45;100731.13;;;8.54;nan
55456;BME280;63021;52.836;6.376;2024-03-23T09:35:11;100756.31;;;8.89;nan
55456;BME280;63021;52.836;6.376;2024-03-23T09:37:38;100739.13;;;9.03;nan
55456;BME280;63021;52.836;6.376;2024-03-23T09:40:05;100727.66;;;9.22;nan
55456;BME280;63021;52.836;6.376;2024-03-23T09:42:32;100745.81;;;9.46;nan
55456;BME280;63021;52.836;6.376;2024-03-23T09:44:58;100757.00;;;9.60;nan
55456;BME280;63021;52.836;6.376;2024-03-23T09:47:24;100759.38;;;9.63;nan
55456;BME280;63021;52.836;6.376;2024-03-23T09:49:54;100783.28;;;9.73;nan
55456;BME280;63021;52.836;6.376;2024-03-23T09:52:20;100781.47;;;9.53;nan
55456;BME280;63021;52.836;6.376;2024-03-23T09:54:46;100783.16;;;9.35;nan
55456;BME280;63021;52.836;6.376;2024-03-23T09:57:11;100780.09;;;9.20;nan
55456;BME280;63021;52.836;6.376;2024-03-23T09:59:37;100775.78;;;8.99;nan
55456;BME280;63021;52.836;6.376;2024-03-23T10:02:02;100748.75;;;8.75;nan
55456;BME280;63021;52.836;6.376;2024-03-23T10:04:39;100776.31;;;8.83;nan
55456;BME280;63021;52.836;6.376;2024-03-23T10:09:37;100772.03;;;8.52;nan
55456;BME280;63021;52.836;6.376;2024-03-23T10:12:13;100773.41;;;8.46;nan
55456;BME280;63021;52.836;6.376;2024-03-23T10:14:42;100769.28;;;8.32;nan
55456;BME280;63021;52.836;6.376;2024-03-23T10:17:18;100764.09;;;8.21;nan
55456;BME280;63021;52.836;6.376;2024-03-23T10:19:47;100745.03;;;8.06;nan
55456;BME280;63021;52.836;6.376;2024-03-23T10:22:18;100743.38;;;8.05;nan
55456;BME280;63021;52.836;6.376;2024-03-23T10:24:44;100726.44;;;7.96;nan
55456;BME280;63021;52.836;6.376;2024-03-23T10:27:18;100741.69;;;8.04;nan
55456;BME280;63021;52.836;6.376;2024-03-23T10:29:56;100766.28;;;8.15;nan
55456;BME280;63021;52.836;6.376;2024-03-23T10:32:32;100738.34;;;8.11;nan
55456;BME280;63021;52.836;6.376;2024-03-23T10:35:13;100745.66;;;8.19;nan
55456;BME280;63021;52.836;6.376;2024-03-23T10:37:58;100723.84;;;8.15;nan
55456;BME280;63021;52.836;6.376;2024-03-23T10:40:24;100742.09;;;8.40;nan
55456;BME280;63021;52.836;6.376;2024-03-23T10:42:57;100728.28;;;8.36;nan
55456;BME280;63021;52.836;6.376;2024-03-23T10:45:33;100743.94;;;8.49;nan
55456;BME280;63021;52.836;6.376;2024-03-23T10:47:58;100758.22;;;8.48;nan
55456;BME280;63021;52.836;6.376;2024-03-23T10:50:24;100755.81;;;8.45;nan
55456;BME280;63021;52.836;6.376;2024-03-23T10:52:53;100756.41;;;8.27;nan
55456;BME280;63021;52.836;6.376;2024-03-23T10:55:24;100766.97;;;8.08;nan
55456;BME280;63021;52.836;6.376;2024-03-23T10:57:59;100775.13;;;7.95;nan
55456;BME280;63021;52.836;6.376;2024-03-23T11:00:25;100783.09;;;7.74;nan
55456;BME280;63021;52.836;6.376;2024-03-23T11:02:51;100785.25;;;7.59;nan
55456;BME280;63021;52.836;6.376;2024-03-23T11:07:52;100776.88;;;7.21;nan
55456;BME280;63021;52.836;6.376;2024-03-23T11:10:30;100776.06;;;7.09;nan
55456;BME280;63021;52.836;6.376;2024-03-23T11:12:58;100778.88;;;6.97;nan
55456;BME280;63021;52.836;6.376;2024-03-23T11:15:43;100762.31;;;6.83;nan
55456;BME280;63021;52.836;6.376;2024-03-23T11:18:09;100775.03;;;6.89;nan
55456;BME280;63021;52.836;6.376;2024-03-23T11:20:35;100764.50;;;6.78;nan
55456;BME280;63021;52.836;6.376;2024-03-23T11:23:01;100777.22;;;6.84;nan
55456;BME280;63021;52.836;6.376;2024-03-23T11:25:27;100759.09;;;6.80;nan
55456;BME280;63021;52.836;6.376;2024-03-23T11:28:06;100753.31;;;6.74;nan
55456;BME280;63021;52.836;6.376;2024-03-23T11:30:34;100747.34;;;6.61;nan
55456;BME280;63021;52.836;6.376;2024-03-23T11:33:02;100772.22;;;6.70;nan
55456;BME280;63021;52.836;6.376;2024-03-23T11:35:32;100751.44;;;6.65;nan
55456;BME280;63021;52.836;6.376;2024-03-23T11:40:30;100749.91;;;6.84;nan
55456;BME280;63021;52.836;6.376;2024-03-23T11:42:58;100743.41;;;6.88;nan
55456;BME280;63021;52.836;6.376;2024-03-23T11:45:24;100742.69;;;6.97;nan
55456;BME280;63021;52.836;6.376;2024-03-23T11:48:01;100749.34;;;7.13;nan
55456;BME280;63021;52.836;6.376;2024-03-23T11:50:30;100743.63;;;7.28;nan
55456;BME280;63021;52.836;6.376;2024-03-23T11:53:22;100750.88;;;7.48;nan
55456;BME280;63021;52.836;6.376;2024-03-23T11:55:55;100728.63;;;7.60;nan
55456;BME280;63021;52.836;6.376;2024-03-23T11:58:25;100735.59;;;7.82;nan
55456;BME280;63021;52.836;6.376;2024-03-23T12:00:53;100751.69;;;8.00;nan
55456;BME280;63021;52.836;6.376;2024-03-23T12:03:19;100723.34;;;8.22;nan
55456;BME280;63021;52.836;6.376;2024-03-23T12:05:58;100716.13;;;8.43;nan
55456;BME280;63021;52.836;6.376;2024-03-23T12:08:33;100722.47;;;8.62;nan
55456;BME280;63021;52.836;6.376;2024-03-23T12:11:13;100747.50;;;8.79;nan
55456;BME280;63021;52.836;6.376;2024-03-23T12:13:40;100729.34;;;8.74;nan
55456;BME280;63021;52.836;6.376;2024-03-23T12:16:14;100732.28;;;8.71;nan
55456;BME280;63021;52.836;6.376;2024-03-23T12:18:44;100734.34;;;8.67;nan
55456;BME280;63021;52.836;6.376;2024-03-23T12:21:11;100714.41;;;8.63;nan
55456;BME280;63021;52.836;6.376;2024-03-23T12:23:39;100736.00;;;8.59;nan
55456;BME280;63021;52.836;6.376;2024-03-23T12:26:04;100717.16;;;8.62;nan
55456;BME280;63021;52.836;6.376;2024-03-23T12:28:29;100706.69;;;8.70;nan
55456;BME280;63021;52.836;6.376;2024-03-23T12:30:55;100710.78;;;8.94;nan
55456;BME280;63021;52.836;6.376;2024-03-23T12:33:21;100718.19;;;9.19;nan
55456;BME280;63021;52.836;6.376;2024-03-23T12:35:47;100701.38;;;9.39;nan
55456;BME280;63021;52.836;6.376;2024-03-23T12:38:12;100717.59;;;9.45;nan
55456;BME280;63021;52.836;6.376;2024-03-23T12:40:40;100687.38;;;9.46;nan
55456;BME280;63021;52.836;6.376;2024-03-23T12:43:06;100692.97;;;9.43;nan
55456;BME280;63021;52.836;6.376;2024-03-23T12:45:32;100693.25;;;9.40;nan
55456;BME280;63021;52.836;6.376;2024-03-23T12:47:58;100673.53;;;9.43;nan
55456;BME280;63021;52.836;6.376;2024-03-23T12:50:23;100677.13;;;9.61;nan
55456;BME280;63021;52.836;6.376;2024-03-23T12:52:49;100674.50;;;9.51;nan
55456;BME280;63021;52.836;6.376;2024-03-23T12:55:14;100713.84;;;9.38;nan
55456;BME280;63021;52.836;6.376;2024-03-23T12:57:40;100712.72;;;9.11;nan
55456;BME280;63021;52.836;6.376;2024-03-23T13:00:08;100697.22;;;8.87;nan
55456;BME280;63021;52.836;6.376;2024-03-23T13:02:38;100705.47;;;8.84;nan
55456;BME280;63021;52.836;6.376;2024-03-23T13:05:04;100692.34;;;8.92;nan
55456;BME280;63021;52.836;6.376;2024-03-23T13:07:30;100690.66;;;9.01;nan
55456;BME280;63021;52.836;6.376;2024-03-23T13:09:55;100687.84;;;9.12;nan
55456;BME280;63021;52.836;6.376;2024-03-23T13:12:22;100677.59;;;9.37;nan
55456;BME280;63021;52.836;6.376;2024-03-23T13:14:48;100691.31;;;9.32;nan
55456;BME280;63021;52.836;6.376;2024-03-23T13:17:14;100687.69;;;9.24;nan
55456;BME280;63021;52.836;6.376;2024-03-23T13:19:40;100710.91;;;9.22;nan
55456;BME280;63021;52.836;6.376;2024-03-23T13:22:06;100695.41;;;9.17;nan
55456;BME280;63021;52.836;6.376;2024-03-23T13:24:31;100713.69;;;9.20;nan
55456;BME280;63021;52.836;6.376;2024-03-23T13:26:58;100693.28;;;9.30;nan
55456;BME280;63021;52.836;6.376;2024-03-23T13:29:26;100683.72;;;9.47;nan
55456;BME280;63021;52.836;6.376;2024-03-23T13:31:52;100679.06;;;9.59;nan
55456;BME280;63021;52.836;6.376;2024-03-23T13:34:19;100687.44;;;9.74;nan
55456;BME280;63021;52.836;6.376;2024-03-23T13:36:45;100690.31;;;9.91;nan
55456;BME280;63021;52.836;6.376;2024-03-23T13:39:12;100702.13;;;10.06;nan
55456;BME280;63021;52.836;6.376;2024-03-23T13:41:39;100691.34;;;10.08;nan
55456;BME280;63021;52.836;6.376;2024-03-23T13:44:06;100660.44;;;9.97;nan
55456;BME280;63021;52.836;6.376;2024-03-23T13:46:35;100669.72;;;10.20;nan
55456;BME280;63021;52.836;6.376;2024-03-23T13:49:04;100652.22;;;10.18;nan
55456;BME280;63021;52.836;6.376;2024-03-23T13:51:32;100657.41;;;10.19;nan
55456;BME280;63021;52.836;6.376;2024-03-23T13:53:58;100674.25;;;10.10;nan
55456;BME280;63021;52.836;6.376;2024-03-23T13:56:26;100683.25;;;9.99;nan
55456;BME280;63021;52.836;6.376;2024-03-23T13:58:56;100651.19;;;9.73;nan
55456;BME280;63021;52.836;6.376;2024-03-23T14:01:23;100667.66;;;9.86;nan
55456;BME280;63021;52.836;6.376;2024-03-23T14:03:49;100654.53;;;9.75;nan
55456;BME280;63021;52.836;6.376;2024-03-23T14:06:15;100646.22;;;9.60;nan
55456;BME280;63021;52.836;6.376;2024-03-23T14:08:40;100667.28;;;9.71;nan
55456;BME280;63021;52.836;6.376;2024-03-23T14:11:07;100687.91;;;9.60;nan
55456;BME280;63021;52.836;6.376;2024-03-23T14:13:34;100672.81;;;9.50;nan
55456;BME280;63021;52.836;6.376;2024-03-23T14:16:00;100644.50;;;9.22;nan
55456;BME280;63021;52.836;6.376;2024-03-23T14:18:29;100681.81;;;9.30;nan
55456;BME280;63021;52.836;6.376;2024-03-23T14:20:59;100673.84;;;9.20;nan
55456;BME280;63021;52.836;6.376;2024-03-23T14:23:30;100698.63;;;9.01;nan
55456;BME280;63021;52.836;6.376;2024-03-23T14:25:56;100712.19;;;8.88;nan
55456;BME280;63021;52.836;6.376;2024-03-23T14:28:22;100721.53;;;8.73;nan
55456;BME280;63021;52.836;6.376;2024-03-23T14:30:51;100730.13;;;8.45;nan
55456;BME280;63021;52.836;6.376;2024-03-23T14:33:17;100692.91;;;8.16;nan